createdAt,value
2019-05-30T00:00:16.936Z,2.22
2019-05-30T00:02:37.816Z,3.07
2019-05-30T00:05:07.121Z,1.85
2019-05-30T00:07:35.837Z,1.35
2019-05-30T00:10:06.573Z,2.15
2019-05-30T00:12:35.229Z,1.87
2019-05-30T00:15:06.557Z,1.77
2019-05-30T00:17:35.392Z,2.02
2019-05-30T00:20:06.047Z,1.17
2019-05-30T00:22:34.796Z,1.87
2019-05-30T00:25:06.371Z,1.37
2019-05-30T00:27:35.087Z,2.25
2019-05-30T00:30:04.784Z,2.47
2019-05-30T00:32:33.418Z,1.98
2019-05-30T00:35:02.166Z,2.45
2019-05-30T00:37:30.940Z,2.08
2019-05-30T00:39:59.905Z,1.95
2019-05-30T00:42:28.774Z,1.67
2019-05-30T00:44:57.894Z,3.30
2019-05-30T00:47:26.672Z,2.72
2019-05-30T00:49:56.209Z,2.22
2019-05-30T00:52:25.011Z,1.52
2019-05-30T00:54:53.666Z,3.22
2019-05-30T00:57:22.276Z,2.45
2019-05-30T00:59:50.938Z,2.08
2019-05-30T01:02:19.550Z,2.35
2019-05-30T01:04:48.205Z,1.30
2019-05-30T01:07:16.944Z,1.65
2019-05-30T01:09:45.553Z,2.50
2019-05-30T01:12:14.217Z,1.52
2019-05-30T01:14:43.140Z,1.60
2019-05-30T01:17:11.926Z,2.30
2019-05-30T01:19:40.778Z,2.20
2019-05-30T01:22:09.440Z,2.12
2019-05-30T01:24:38.044Z,1.95
2019-05-30T01:27:07.604Z,3.52
2019-05-30T01:29:36.628Z,1.87
2019-05-30T01:32:05.590Z,2.10
2019-05-30T01:34:34.313Z,1.72
2019-05-30T01:37:03.791Z,1.60
2019-05-30T01:39:32.520Z,2.20
2019-05-30T01:42:01.835Z,2.30
2019-05-30T01:44:30.571Z,2.33
2019-05-30T01:47:00.160Z,1.92
2019-05-30T01:49:28.935Z,1.72
2019-05-30T01:51:58.342Z,1.80
2019-05-30T01:54:27.111Z,1.45
2019-05-30T01:56:55.776Z,1.37
2019-05-30T01:59:24.393Z,1.57
2019-05-30T02:01:53.086Z,1.87
2019-05-30T02:04:21.691Z,1.98
2019-05-30T02:06:50.346Z,2.55
2019-05-30T02:09:19.040Z,1.80
2019-05-30T02:11:47.728Z,1.30
2019-05-30T02:14:16.334Z,2.83
2019-05-30T02:16:45.563Z,1.85
2019-05-30T02:19:14.178Z,1.60
2019-05-30T02:21:42.840Z,2.47
2019-05-30T02:24:12.298Z,2.60
2019-05-30T02:26:41.086Z,1.82
2019-05-30T02:29:10.475Z,2.05
2019-05-30T02:31:39.967Z,1.60
2019-05-30T02:34:11.400Z,3.20
2019-05-30T02:36:39.191Z,2.50
2019-05-30T02:39:09.997Z,2.40
2019-05-30T02:41:38.858Z,1.62
2019-05-30T02:44:08.102Z,1.35
2019-05-30T02:46:37.938Z,1.20
2019-05-30T02:49:07.241Z,1.10
2019-05-30T02:51:36.977Z,1.87
2019-05-30T02:54:07.052Z,1.60
2019-05-30T02:56:36.164Z,0.88
2019-05-30T02:59:06.055Z,1.42
2019-05-30T03:01:35.271Z,1.15
2019-05-30T03:04:05.740Z,1.77
2019-05-30T03:06:34.593Z,1.57
2019-05-30T03:09:06.219Z,1.52
2019-05-30T03:11:35.464Z,1.77
2019-05-30T03:14:07.018Z,1.55
2019-05-30T03:16:35.587Z,1.42
2019-05-30T03:19:05.945Z,3.05
2019-05-30T03:21:34.991Z,2.08
2019-05-30T03:24:05.027Z,2.45
2019-05-30T03:26:34.299Z,1.07
2019-05-30T03:29:05.057Z,2.08
2019-05-30T03:31:35.891Z,1.42
2019-05-30T03:34:08.898Z,1.90
2019-05-30T03:36:35.380Z,1.30
2019-05-30T03:39:07.692Z,2.02
2019-05-30T03:41:36.977Z,1.20
2019-05-30T03:44:06.173Z,1.50
2019-05-30T03:46:40.776Z,1.47
2019-05-30T03:49:17.029Z,1.40
2019-05-30T03:51:47.690Z,2.42
2019-05-30T03:54:17.348Z,1.30
2019-05-30T03:56:55.885Z,1.57
2019-05-30T03:59:33.958Z,3.20
2019-05-30T04:02:21.199Z,1.42
2019-05-30T04:05:14.183Z,1.50
2019-05-30T04:07:53.608Z,1.92
2019-05-30T04:10:24.703Z,1.67
2019-05-30T04:13:26.506Z,2.58
2019-05-30T04:15:55.176Z,1.90
2019-05-30T04:18:23.858Z,1.82
2019-05-30T04:20:52.470Z,1.30
2019-05-30T04:23:21.129Z,1.82
2019-05-30T04:25:49.798Z,1.67
2019-05-30T04:28:18.816Z,2.83
2019-05-30T04:30:47.647Z,2.22
2019-05-30T04:33:29.458Z,2.50
2019-05-30T04:35:46.637Z,1.55
2019-05-30T04:38:16.931Z,1.32
2019-05-30T04:40:45.637Z,1.90
2019-05-30T04:43:15.499Z,2.10
2019-05-30T04:45:44.440Z,1.55
2019-05-30T04:48:14.049Z,1.02
2019-05-30T04:50:42.997Z,1.57
2019-05-30T04:53:12.206Z,1.47
2019-05-30T04:55:41.088Z,2.22
2019-05-30T04:58:10.977Z,1.65
2019-05-30T05:00:40.105Z,0.95
2019-05-30T05:03:08.716Z,1.87
2019-05-30T05:05:37.380Z,1.85
2019-05-30T05:08:06.178Z,1.60
2019-05-30T05:10:34.784Z,1.12
2019-05-30T05:13:03.520Z,2.27
2019-05-30T05:15:32.129Z,1.75
2019-05-30T05:18:00.796Z,2.02
2019-05-30T05:20:29.413Z,2.83
2019-05-30T05:22:58.072Z,1.30
2019-05-30T05:25:26.683Z,1.40
2019-05-30T05:27:55.348Z,1.30
2019-05-30T05:30:24.431Z,1.32
2019-05-30T05:32:53.251Z,2.90
2019-05-30T05:35:23.030Z,1.77
2019-05-30T05:37:51.912Z,2.58
2019-05-30T05:40:20.667Z,2.40
2019-05-30T05:42:49.401Z,2.35
2019-05-30T05:45:18.309Z,2.22
2019-05-30T05:47:47.004Z,1.30
2019-05-30T05:50:16.736Z,2.77
2019-05-30T05:52:45.578Z,1.98
2019-05-30T05:55:14.700Z,1.85
2019-05-30T05:57:43.361Z,1.62
2019-05-30T06:00:12.487Z,2.05
2019-05-30T06:02:41.144Z,1.35
2019-05-30T06:05:09.941Z,1.75
2019-05-30T06:07:38.568Z,2.05
2019-05-30T06:10:07.536Z,1.98
2019-05-30T06:12:36.198Z,1.52
2019-05-30T06:15:06.364Z,2.15
2019-05-30T06:17:34.997Z,1.77
2019-05-30T06:20:06.334Z,2.08
2019-05-30T06:22:35.115Z,2.25
2019-05-30T06:25:05.968Z,3.27
2019-05-30T06:27:34.696Z,1.98
2019-05-30T06:30:08.470Z,2.80
2019-05-30T06:32:37.082Z,2.62
2019-05-30T06:35:09.457Z,2.33
2019-05-30T06:37:38.067Z,1.87
2019-05-30T06:40:07.341Z,3.02
2019-05-30T06:42:36.915Z,2.52
2019-05-30T06:45:09.446Z,2.42
2019-05-30T06:47:38.063Z,3.52
2019-05-30T06:50:08.704Z,2.50
2019-05-30T06:52:37.317Z,1.42
2019-05-30T06:55:06.518Z,2.72
2019-05-30T06:57:35.703Z,2.55
2019-05-30T07:00:09.143Z,2.85
2019-05-30T07:02:37.995Z,2.52
2019-05-30T07:05:08.996Z,1.80
2019-05-30T07:07:38.068Z,2.58
2019-05-30T07:10:07.699Z,2.42
2019-05-30T07:12:37.954Z,3.22
2019-05-30T07:15:09.648Z,2.67
2019-05-30T07:17:38.385Z,2.52
2019-05-30T07:20:07.556Z,1.60
2019-05-30T07:22:36.219Z,2.45
2019-05-30T07:25:06.774Z,1.87
2019-05-30T07:27:35.457Z,2.60
2019-05-30T07:30:07.331Z,3.22
2019-05-30T07:32:35.997Z,3.50
2019-05-30T07:35:07.645Z,2.40
2019-05-30T07:37:36.549Z,1.75
2019-05-30T07:40:11.806Z,1.75
2019-05-30T07:42:40.443Z,2.47
2019-05-30T07:45:11.523Z,2.20
2019-05-30T07:47:40.582Z,2.08
2019-05-30T07:50:10.944Z,1.55
2019-05-30T07:52:39.777Z,2.20
2019-05-30T07:55:10.735Z,1.20
2019-05-30T07:57:41.329Z,1.30
2019-05-30T08:00:13.661Z,1.32
2019-05-30T08:02:42.705Z,2.10
2019-05-30T08:05:23.409Z,2.08
2019-05-30T08:07:42.961Z,1.30
2019-05-30T08:10:12.722Z,1.62
2019-05-30T08:12:41.438Z,1.37
2019-05-30T08:15:10.867Z,1.47
2019-05-30T08:17:39.630Z,2.40
2019-05-30T08:20:09.155Z,1.60
2019-05-30T08:22:38.318Z,2.00
2019-05-30T08:25:09.030Z,1.27
2019-05-30T08:27:38.668Z,1.50
2019-05-30T08:30:10.623Z,1.50
2019-05-30T08:32:39.401Z,1.55
2019-05-30T08:35:08.877Z,1.42
2019-05-30T08:37:37.852Z,1.70
2019-05-30T08:40:10.581Z,1.00
2019-05-30T08:42:40.365Z,1.98
2019-05-30T08:45:10.591Z,2.02
2019-05-30T08:47:40.655Z,2.20
2019-05-30T08:50:10.429Z,1.10
2019-05-30T08:52:39.045Z,1.65
2019-05-30T08:55:08.638Z,1.30
2019-05-30T08:57:38.588Z,1.37
2019-05-30T09:00:10.984Z,1.12
2019-05-30T09:02:40.758Z,2.02
2019-05-30T09:05:10.154Z,0.75
2019-05-30T09:07:40.058Z,1.70
2019-05-30T09:10:10.319Z,1.50
2019-05-30T09:12:42.076Z,1.82
2019-05-30T09:15:14.224Z,1.12
2019-05-30T09:17:44.572Z,1.87
2019-05-30T09:20:13.852Z,1.55
2019-05-30T09:22:43.748Z,2.30
2019-05-30T09:25:13.944Z,1.67
2019-05-30T09:27:44.589Z,1.20
2019-05-30T09:30:15.944Z,1.15
2019-05-30T09:32:45.164Z,2.47
2019-05-30T09:35:16.276Z,1.27
2019-05-30T09:37:45.919Z,1.40
2019-05-30T09:40:16.951Z,1.40
2019-05-30T09:42:46.972Z,0.88
2019-05-30T09:45:18.909Z,2.27
2019-05-30T09:47:49.359Z,2.08
2019-05-30T09:50:20.047Z,1.67
2019-05-30T09:52:49.391Z,1.22
2019-05-30T09:55:19.783Z,0.95
2019-05-30T09:57:49.630Z,2.40
2019-05-30T10:00:21.702Z,1.27
2019-05-30T10:02:50.649Z,1.17
2019-05-30T10:05:24.165Z,1.30
2019-05-30T10:07:51.111Z,1.40
2019-05-30T10:10:20.284Z,2.42
2019-05-30T10:12:50.211Z,1.70
2019-05-30T10:15:20.083Z,0.90
2019-05-30T10:17:51.804Z,1.40
2019-05-30T10:20:19.834Z,1.02
2019-05-30T10:22:49.045Z,1.42
2019-05-30T10:25:18.974Z,1.47
2019-05-30T10:27:48.903Z,1.17
2019-05-30T10:30:19.012Z,1.05
2019-05-30T10:32:48.915Z,2.20
2019-05-30T10:35:18.364Z,0.90
2019-05-30T10:37:47.212Z,1.30
2019-05-30T10:40:16.565Z,1.12
2019-05-30T10:42:46.215Z,1.07
2019-05-30T10:45:19.432Z,1.20
2019-05-30T10:47:49.298Z,1.80
2019-05-30T10:50:19.530Z,1.10
2019-05-30T10:52:49.300Z,1.77
2019-05-30T10:55:19.295Z,1.57
2019-05-30T10:57:48.693Z,1.17
2019-05-30T11:00:21.312Z,1.85
2019-05-30T11:02:51.171Z,2.30
2019-05-30T11:05:20.763Z,1.10
2019-05-30T11:08:15.222Z,1.25
2019-05-30T11:10:44.121Z,1.00
2019-05-30T11:13:15.617Z,1.72
2019-05-30T11:15:44.622Z,1.35
2019-05-30T11:18:13.302Z,1.87
2019-05-30T11:20:42.249Z,1.90
2019-05-30T11:23:10.853Z,0.90
2019-05-30T11:25:40.082Z,1.15
2019-05-30T11:28:09.036Z,1.12
2019-05-30T11:30:37.794Z,1.45
2019-05-30T11:33:06.695Z,1.05
2019-05-30T11:35:35.373Z,1.82
2019-05-30T11:38:04.584Z,1.42
2019-05-30T11:40:33.271Z,1.20
2019-05-30T11:43:01.946Z,0.98
2019-05-30T11:45:30.671Z,1.02
2019-05-30T11:48:00.121Z,1.85
2019-05-30T11:50:30.133Z,1.17
2019-05-30T11:53:00.157Z,1.27
2019-05-30T11:55:29.012Z,1.05
2019-05-30T11:57:58.347Z,1.77
2019-05-30T12:00:28.002Z,1.20
2019-05-30T12:02:56.757Z,2.42
2019-05-30T12:05:25.931Z,1.92
2019-05-30T12:07:54.836Z,2.40
2019-05-30T12:10:24.220Z,1.50
2019-05-30T12:12:53.248Z,1.55
2019-05-30T12:15:22.609Z,1.20
2019-05-30T12:17:51.293Z,1.52
2019-05-30T12:20:20.230Z,1.57
2019-05-30T12:22:48.890Z,0.47
2019-05-30T12:25:17.742Z,1.47
2019-05-30T12:27:46.402Z,2.00
2019-05-30T12:30:15.421Z,1.75
2019-05-30T12:32:44.080Z,1.22
2019-05-30T12:35:14.805Z,0.60
2019-05-30T12:37:54.010Z,1.37
2019-05-30T12:40:14.622Z,4.53
2019-05-30T12:42:43.238Z,1.25
2019-05-30T12:45:12.985Z,1.55
2019-05-30T12:47:41.593Z,1.42
2019-05-30T12:50:11.564Z,1.40
2019-05-30T12:52:40.183Z,1.57
2019-05-30T12:55:09.556Z,0.98
2019-05-30T12:57:38.305Z,1.47
2019-05-30T13:00:17.609Z,1.27
2019-05-30T13:02:40.038Z,3.00
2019-05-30T13:05:09.606Z,25.40
2019-05-30T13:07:38.267Z,4.80
2019-05-30T13:10:10.059Z,2.77
2019-05-30T13:12:38.674Z,1.20
2019-05-30T13:15:08.143Z,1.47
2019-05-30T13:17:36.753Z,1.95
2019-05-30T13:20:07.985Z,1.62
2019-05-30T13:22:36.733Z,2.55
2019-05-30T13:25:10.551Z,0.75
2019-05-30T13:27:39.281Z,1.30
2019-05-30T13:30:09.911Z,1.17
2019-05-30T13:32:38.654Z,1.37
2019-05-30T13:35:09.015Z,0.88
2019-05-30T13:37:37.845Z,0.78
2019-05-30T13:40:24.340Z,0.70
2019-05-30T13:42:40.455Z,1.15
2019-05-30T13:45:10.176Z,0.75
2019-05-30T13:47:39.177Z,0.98
2019-05-30T13:50:13.482Z,1.22
2019-05-30T13:52:41.258Z,0.88
2019-05-30T13:55:10.447Z,0.98
2019-05-30T13:57:39.121Z,0.98
2019-05-30T14:00:11.459Z,1.80
2019-05-30T14:02:40.195Z,0.62
2019-05-30T14:05:10.624Z,0.90
2019-05-30T14:07:39.624Z,1.05
2019-05-30T14:10:10.713Z,0.93
2019-05-30T14:12:39.602Z,0.70
2019-05-30T14:15:14.223Z,1.20
2019-05-30T14:17:43.355Z,0.70
2019-05-30T14:20:14.354Z,0.50
2019-05-30T14:22:43.213Z,2.30
2019-05-30T14:25:12.878Z,0.70
2019-05-30T14:27:41.562Z,2.08
2019-05-30T14:30:13.058Z,0.50
2019-05-30T14:32:41.891Z,0.82
2019-05-30T14:35:13.343Z,0.72
2019-05-30T14:37:41.429Z,0.60
2019-05-30T14:40:15.461Z,1.25
2019-05-30T14:42:44.158Z,0.75
2019-05-30T14:45:16.836Z,0.60
2019-05-30T14:47:45.671Z,1.20
2019-05-30T14:50:17.295Z,1.15
2019-05-30T14:52:47.295Z,0.88
2019-05-30T14:55:17.354Z,0.78
2019-05-30T14:57:46.205Z,8.30
2019-05-30T15:00:17.670Z,1.92
2019-05-30T15:02:46.582Z,1.05
2019-05-30T15:05:16.535Z,0.88
2019-05-30T15:07:45.153Z,0.85
2019-05-30T15:10:17.019Z,0.78
2019-05-30T15:15:17.980Z,0.60
2019-05-30T15:17:45.315Z,1.95
2019-05-30T15:20:15.088Z,0.30
2019-05-30T15:22:43.703Z,3.08
2019-05-30T15:25:16.535Z,0.40
2019-05-30T15:27:44.058Z,1.12
2019-05-30T15:30:14.625Z,0.47
2019-05-30T15:32:43.593Z,2.75
2019-05-30T15:35:13.044Z,2.95
2019-05-30T15:37:41.708Z,1.37
2019-05-30T15:40:13.032Z,0.68
2019-05-30T15:42:41.902Z,1.52
2019-05-30T15:45:12.012Z,1.22
2019-05-30T15:47:40.897Z,0.90
2019-05-30T15:50:11.967Z,1.00
2019-05-30T15:52:41.366Z,1.30
2019-05-30T15:55:11.370Z,2.08
2019-05-30T15:57:40.163Z,1.62
2019-05-30T16:00:12.122Z,1.92
2019-05-30T16:02:41.006Z,1.25
2019-05-30T16:05:10.773Z,2.58
2019-05-30T16:07:39.559Z,0.90
2019-05-30T16:10:08.876Z,0.80
2019-05-30T16:12:37.720Z,1.70
2019-05-30T16:15:11.679Z,0.50
2019-05-30T16:17:40.577Z,0.68
2019-05-30T16:20:11.659Z,0.98
2019-05-30T16:22:40.611Z,0.60
2019-05-30T16:25:09.662Z,0.60
2019-05-30T16:27:38.282Z,0.80
2019-05-30T16:30:08.715Z,1.82
2019-05-30T16:32:37.765Z,0.65
2019-05-30T16:35:07.935Z,0.90
2019-05-30T16:37:36.652Z,0.75
2019-05-30T16:40:08.314Z,1.10
2019-05-30T16:42:36.979Z,0.70
2019-05-30T16:45:10.332Z,1.02
2019-05-30T16:47:39.029Z,0.70
2019-05-30T16:50:09.347Z,0.95
2019-05-30T16:52:38.252Z,0.80
2019-05-30T16:55:07.976Z,0.70
2019-05-30T16:57:36.710Z,1.42
2019-05-30T17:00:11.066Z,0.93
2019-05-30T17:02:39.724Z,1.00
2019-05-30T17:05:09.493Z,0.78
2019-05-30T17:07:38.162Z,3.35
2019-05-30T17:10:21.447Z,0.70
2019-05-30T17:12:38.228Z,1.12
2019-05-30T17:15:11.067Z,1.50
2019-05-30T17:17:39.688Z,0.80
2019-05-30T17:20:13.726Z,1.00
2019-05-30T17:22:42.395Z,1.17
2019-05-30T17:25:11.999Z,0.95
2019-05-30T17:27:40.611Z,2.47
2019-05-30T17:30:12.450Z,0.80
2019-05-30T17:32:41.136Z,1.20
2019-05-30T17:35:10.459Z,1.20
2019-05-30T17:37:39.204Z,1.62
2019-05-30T17:40:08.530Z,1.47
2019-05-30T17:42:37.619Z,0.90
2019-05-30T17:45:10.570Z,1.25
2019-05-30T17:47:39.363Z,1.00
2019-05-30T17:50:10.042Z,1.07
2019-05-30T17:52:38.827Z,1.45
2019-05-30T17:55:09.791Z,0.60
2019-05-30T17:57:38.402Z,0.93
2019-05-30T18:00:14.193Z,0.62
2019-05-30T18:02:42.806Z,1.22
2019-05-30T18:05:12.778Z,1.12
2019-05-30T18:07:41.397Z,1.27
2019-05-30T18:10:13.546Z,1.30
2019-05-30T18:12:42.163Z,1.00
2019-05-30T18:15:14.296Z,0.75
2019-05-30T18:17:42.983Z,1.70
2019-05-30T18:20:13.894Z,0.80
2019-05-30T18:22:42.509Z,1.17
2019-05-30T18:25:12.288Z,0.93
2019-05-30T18:27:41.014Z,2.00
2019-05-30T18:30:11.276Z,1.95
2019-05-30T18:32:39.889Z,1.07
2019-05-30T18:35:08.803Z,1.30
2019-05-30T18:37:38.607Z,1.72
2019-05-30T18:40:08.568Z,1.10
2019-05-30T18:42:37.395Z,2.05
2019-05-30T18:45:10.718Z,1.77
2019-05-30T18:47:39.406Z,2.85
2019-05-30T18:50:09.230Z,1.30
2019-05-30T18:52:37.899Z,1.20
2019-05-30T18:55:08.329Z,1.10
2019-05-30T18:57:37.415Z,1.60
2019-05-30T19:00:13.452Z,0.70
2019-05-30T19:02:41.232Z,1.57
2019-05-30T19:05:09.937Z,1.32
2019-05-30T19:07:38.597Z,0.90
2019-05-30T19:10:07.948Z,1.05
2019-05-30T19:12:36.755Z,1.87
2019-05-30T19:15:07.509Z,1.27
2019-05-30T19:17:36.413Z,1.37
2019-05-30T19:20:08.569Z,2.08
2019-05-30T19:22:37.235Z,1.42
2019-05-30T19:25:07.627Z,2.83
2019-05-30T19:27:37.102Z,2.00
2019-05-30T19:30:11.418Z,36.75
2019-05-30T19:32:40.208Z,21.50
2019-05-30T19:35:10.271Z,10.58
2019-05-30T19:37:39.013Z,7.97
2019-05-30T19:40:08.428Z,4.62
2019-05-30T19:42:37.924Z,6.22
2019-05-30T19:45:09.504Z,7.05
2019-05-30T19:47:38.809Z,7.00
2019-05-30T19:50:11.059Z,9.18
2019-05-30T19:52:39.680Z,11.00
2019-05-30T19:55:09.148Z,12.15
2019-05-30T19:57:37.925Z,12.70
2019-05-30T20:00:08.522Z,11.78
2019-05-30T20:02:38.347Z,11.75
2019-05-30T20:05:08.594Z,14.18
2019-05-30T20:07:37.212Z,13.62
2019-05-30T20:10:07.083Z,21.68
2019-05-30T20:12:36.888Z,16.12
2019-05-30T20:15:12.044Z,14.20
2019-05-30T20:17:41.915Z,10.25
2019-05-30T20:20:11.215Z,7.30
2019-05-30T20:22:40.228Z,8.20
2019-05-30T20:25:10.379Z,4.97
2019-05-30T20:27:39.168Z,4.28
2019-05-30T20:30:11.013Z,3.65
2019-05-30T20:32:40.904Z,5.15
2019-05-30T20:35:10.552Z,3.67
2019-05-30T20:37:39.165Z,3.00
2019-05-30T20:40:09.738Z,4.03
2019-05-30T20:42:39.004Z,5.90
2019-05-30T20:45:10.193Z,3.85
2019-05-30T20:47:40.719Z,2.70
2019-05-30T20:50:14.628Z,3.12
2019-05-30T20:52:44.113Z,2.80
2019-05-30T20:55:14.732Z,4.67
2019-05-30T20:57:43.352Z,6.05
2019-05-30T21:00:14.171Z,4.20
2019-05-30T21:02:43.743Z,2.95
2019-05-30T21:05:12.932Z,2.20
2019-05-30T21:07:42.331Z,2.00
2019-05-30T21:10:11.850Z,2.22
2019-05-30T21:12:46.720Z,2.30
2019-05-30T21:15:12.740Z,2.77
2019-05-30T21:17:43.866Z,2.70
2019-05-30T21:20:12.818Z,1.90
2019-05-30T21:22:42.278Z,1.92
2019-05-30T21:25:11.315Z,5.25
2019-05-30T21:27:40.867Z,2.10
2019-05-30T21:30:10.385Z,5.47
2019-05-30T21:32:39.898Z,3.17
2019-05-30T21:35:09.373Z,2.95
2019-05-30T21:37:38.076Z,3.83
2019-05-30T21:40:07.712Z,3.42
2019-05-30T21:42:54.597Z,2.62
2019-05-30T21:45:08.223Z,2.10
2019-05-30T21:47:36.957Z,1.98
2019-05-30T21:50:07.670Z,3.08
2019-05-30T21:52:36.525Z,4.87
2019-05-30T21:55:07.060Z,5.75
2019-05-30T21:57:35.667Z,4.05
2019-05-30T22:00:11.354Z,3.25
2019-05-30T22:02:42.318Z,3.00
2019-05-30T22:05:11.644Z,3.30
2019-05-30T22:07:40.941Z,2.85
2019-05-30T22:10:09.771Z,3.17
2019-05-30T22:12:38.457Z,3.25
2019-05-30T22:15:07.475Z,2.92
2019-05-30T22:17:36.094Z,2.60
2019-05-30T22:20:06.580Z,2.77
2019-05-30T22:22:35.191Z,1.87
2019-05-30T22:25:05.458Z,1.95
2019-05-30T22:27:34.294Z,2.30
2019-05-30T22:30:03.928Z,1.85
2019-05-30T22:32:32.544Z,1.50
2019-05-30T22:35:01.206Z,2.50
2019-05-30T22:37:29.889Z,2.10
2019-05-30T22:39:58.549Z,1.60
2019-05-30T22:42:27.316Z,1.77
2019-05-30T22:44:56.544Z,1.65
2019-05-30T22:47:25.506Z,1.75
2019-05-30T22:49:54.195Z,1.42
2019-05-30T22:52:23.088Z,1.80
2019-05-30T22:54:51.697Z,1.20
2019-05-30T22:57:20.356Z,2.58
2019-05-30T22:59:48.975Z,2.42
2019-05-30T23:02:17.728Z,1.55
2019-05-30T23:04:46.413Z,1.50
2019-05-30T23:07:15.081Z,1.67
2019-05-30T23:09:43.691Z,1.70
2019-05-30T23:12:12.305Z,1.55
2019-05-30T23:14:41.029Z,1.90
2019-05-30T23:17:09.843Z,1.67
2019-05-30T23:19:38.458Z,2.40
2019-05-30T23:22:07.122Z,1.57
2019-05-30T23:24:35.736Z,2.72
2019-05-30T23:27:07.584Z,1.47
2019-05-30T23:29:34.833Z,1.62
2019-05-30T23:32:03.442Z,1.60
2019-05-30T23:34:32.106Z,2.00
2019-05-30T23:37:00.765Z,1.57
2019-05-30T23:39:29.431Z,1.92
2019-05-30T23:41:59.241Z,2.75
2019-05-30T23:44:28.137Z,2.58
2019-05-30T23:46:57.802Z,1.50
2019-05-30T23:49:26.587Z,1.87
2019-05-30T23:51:56.209Z,1.82
2019-05-30T23:54:24.952Z,3.20
2019-05-30T23:56:54.742Z,1.70
2019-05-30T23:59:23.536Z,2.30
